Terminal Aerodrome Forecast
Issued by NWS

Home | Current Version | Previous Version | Text Only | Print | Product List | Glossary On
Versions: 1 2 3 4 5 6 7 8 9 10 11 12 13 14 15 16 17 18
052
FTUS43 KICT 121742
TAFRSL
TAF
KRSL 121742Z 1218/1318 03013KT P6SM OVC008
     FM122000 04013KT P6SM OVC025
     FM122300 04013KT P6SM BKN035 OVC100
     FM130200 07013KT P6SM SCT035 OVC120=

USA.gov is the U.S. government's official web portal to all federal, state and local government web resources and services.